Time;durP1;ratioP1;P1;durP2;ratioP2;P2;SDS_P1;SDS_P2;PMS_P1;PMS_P2;Temp;Humidity;BMP_temperature;BMP_pressure;BME280_temperature;BME280_humidity;BME280_pressure;Samples;Min_cycle;Max_cycle;Signal;HPM_P1;HPM_P2
2023/07/01 00:02:00;;;;;;;1999.90;999.90;;;14.90;99.90;;;;;;4971780;28;20926;-73
2023/07/01 00:04:27;;;;;;;1999.90;999.90;;;14.90;99.90;;;;;;4971019;28;20894;-72
2023/07/01 00:06:55;;;;;;;1999.90;999.90;;;15.00;99.90;;;;;;4969579;28;20531;-73
2023/07/01 00:09:22;;;;;;;1999.90;999.90;;;15.00;99.90;;;;;;4968586;28;20444;-73
2023/07/01 00:11:49;;;;;;;1999.90;999.90;;;15.20;99.90;;;;;;4969802;28;20448;-72
2023/07/01 00:14:16;;;;;;;1999.90;999.90;;;15.00;99.90;;;;;;4968334;28;20543;-73
2023/07/01 00:16:42;;;;;;;1999.90;999.90;;;15.00;99.90;;;;;;4970113;28;20499;-72
2023/07/01 00:19:09;;;;;;;1999.90;999.90;;;15.00;99.90;;;;;;4972107;28;20432;-73
2023/07/01 00:21:35;;;;;;;1999.90;999.90;;;15.00;99.90;;;;;;4971148;28;20431;-72
2023/07/01 00:24:04;;;;;;;1999.90;999.90;;;15.00;99.90;;;;;;4971690;28;20419;-73
2023/07/01 00:26:30;;;;;;;1999.90;999.90;;;15.00;99.90;;;;;;4966396;28;20437;-73
2023/07/01 00:28:57;;;;;;;1999.90;999.90;;;15.00;99.90;;;;;;4969366;28;20423;-72
2023/07/01 00:31:23;;;;;;;1999.90;999.90;;;15.10;99.90;;;;;;4971765;28;20415;-72
2023/07/01 00:33:50;;;;;;;1999.90;999.90;;;15.10;99.90;;;;;;4971265;28;20475;-71
2023/07/01 00:36:17;;;;;;;1999.90;999.90;;;15.00;99.90;;;;;;4967751;28;20562;-74
2023/07/01 00:38:43;;;;;;;1999.90;999.90;;;15.10;99.90;;;;;;4966474;28;20458;-72
2023/07/01 00:41:11;;;;;;;1999.90;999.90;;;15.10;99.90;;;;;;4971817;28;20440;-72
2023/07/01 00:43:39;;;;;;;1999.90;999.90;;;15.10;99.90;;;;;;4971282;28;20426;-72
2023/07/01 00:46:06;;;;;;;1999.90;999.90;;;15.20;99.90;;;;;;4969029;28;20447;-74
2023/07/01 00:48:33;;;;;;;1999.90;999.90;;;15.30;99.90;;;;;;4961520;28;20926;-72
2023/07/01 00:50:59;;;;;;;1999.90;999.90;;;15.30;99.90;;;;;;4966125;28;20490;-72
2023/07/01 00:53:26;;;;;;;1999.90;999.90;;;15.40;99.90;;;;;;4967545;28;20444;-72
2023/07/01 00:55:53;;;;;;;1999.90;999.90;;;15.20;99.90;;;;;;4968638;28;20499;-73
2023/07/01 00:58:21;;;;;;;1999.90;999.90;;;15.20;99.90;;;;;;4963710;28;20444;-71
2023/07/01 01:00:48;;;;;;;1999.90;999.90;;;15.10;99.90;;;;;;4969978;28;20428;-72
2023/07/01 01:03:22;;;;;;;1999.90;999.90;;;15.10;99.90;;;;;;4967619;28;20444;-72
2023/07/01 01:05:54;;;;;;;1999.90;999.90;;;15.10;99.90;;;;;;4963999;28;20440;-70
2023/07/01 01:08:25;;;;;;;1999.90;999.90;;;15.10;99.90;;;;;;4962470;28;20531;-72
2023/07/01 01:10:55;;;;;;;1999.90;999.90;;;15.10;99.90;;;;;;4968261;28;20470;-72
2023/07/01 01:13:26;;;;;;;1999.90;999.90;;;14.90;99.90;;;;;;4966602;28;20440;-70
2023/07/01 01:15:53;;;;;;;1999.90;999.90;;;14.90;99.90;;;;;;4968814;28;21007;-73
2023/07/01 01:18:24;;;;;;;1999.90;999.90;;;14.80;99.90;;;;;;4970334;28;20436;-72
2023/07/01 01:20:51;;;;;;;1999.90;999.90;;;14.80;99.90;;;;;;4972385;28;20442;-70
2023/07/01 01:23:25;;;;;;;1999.90;999.90;;;14.90;99.90;;;;;;4972723;28;20475;-71
2023/07/01 01:25:59;;;;;;;1999.90;999.90;;;14.80;99.90;;;;;;4972361;28;20510;-72
2023/07/01 01:28:28;;;;;;;1999.90;999.90;;;15.20;99.90;;;;;;4971004;28;20503;-70
2023/07/01 01:30:54;;;;;;;1999.90;999.90;;;14.90;99.90;;;;;;4974543;28;20490;-72
2023/07/01 01:33:21;;;;;;;1999.90;999.90;;;14.80;99.90;;;;;;4974543;28;20420;-72
2023/07/01 01:35:47;;;;;;;1999.90;999.90;;;14.80;99.90;;;;;;4973827;28;20961;-76
2023/07/01 01:38:20;;;;;;;1999.90;999.90;;;14.90;99.90;;;;;;4973683;28;20572;-72
2023/07/01 01:40:50;;;;;;;1999.90;999.90;;;14.80;99.90;;;;;;4975023;28;20907;-72
2023/07/01 01:43:24;;;;;;;1999.90;999.90;;;14.70;99.90;;;;;;4973407;28;20420;-72
2023/07/01 01:45:52;;;;;;;1999.90;999.90;;;14.80;99.90;;;;;;4974040;28;20427;-72
2023/07/01 01:48:19;;;;;;;1999.90;999.90;;;14.70;99.90;;;;;;4966502;28;20619;-71
2023/07/01 01:50:49;;;;;;;1999.90;999.90;;;14.70;99.90;;;;;;4973952;28;20479;-72
2023/07/01 01:53:18;;;;;;;1999.90;999.90;;;14.60;99.90;;;;;;4965643;28;20424;-72
2023/07/01 01:55:45;;;;;;;1999.90;999.90;;;14.50;99.90;;;;;;4971075;28;20440;-71
2023/07/01 01:58:12;;;;;;;1999.90;999.90;;;14.60;99.90;;;;;;4972281;28;20451;-72
2023/07/01 02:00:39;;;;;;;1999.90;999.90;;;14.80;99.90;;;;;;4973820;28;20498;-75
2023/07/01 02:03:07;;;;;;;1999.90;999.90;;;14.90;99.90;;;;;;4973652;28;20428;-73
2023/07/01 02:05:34;;;;;;;1999.90;999.90;;;15.00;99.90;;;;;;4974286;28;20424;-73
2023/07/01 02:08:02;;;;;;;1999.90;999.90;;;15.00;99.90;;;;;;4964894;28;20444;-72
2023/07/01 02:10:28;;;;;;;1999.90;999.90;;;15.00;99.90;;;;;;4974518;28;20424;-74
2023/07/01 02:12:55;;;;;;;1999.90;999.90;;;15.00;99.90;;;;;;4973272;28;20415;-71
2023/07/01 02:15:22;;;;;;;1999.90;999.90;;;15.00;99.90;;;;;;4973489;28;20428;-73
2023/07/01 02:17:48;;;;;;;1999.90;999.90;;;14.90;99.90;;;;;;4964749;28;20523;-73
2023/07/01 02:20:16;;;;;;;1999.90;999.90;;;14.90;99.90;;;;;;4973333;28;20470;-74
2023/07/01 02:22:43;;;;;;;1999.90;999.90;;;14.90;99.90;;;;;;4972854;28;20432;-73
2023/07/01 02:25:10;;;;;;;1999.90;999.90;;;14.80;99.90;;;;;;4972876;28;21039;-73
2023/07/01 02:27:36;;;;;;;1999.90;999.90;;;14.80;99.90;;;;;;4964304;28;20443;-73
2023/07/01 02:30:04;;;;;;;1999.90;999.90;;;14.80;99.90;;;;;;4973287;28;20474;-73
2023/07/01 02:32:30;;;;;;;1999.90;999.90;;;14.70;99.90;;;;;;4972618;28;20479;-73
2023/07/01 02:34:57;;;;;;;1999.90;999.90;;;14.70;99.90;;;;;;4973233;28;20467;-73
2023/07/01 02:37:25;;;;;;;1999.90;999.90;;;14.60;99.90;;;;;;4964579;28;20572;-72
2023/07/01 02:39:52;;;;;;;1999.90;999.90;;;14.60;99.90;;;;;;4973191;28;20433;-72
2023/07/01 02:42:20;;;;;;;1999.90;999.90;;;14.50;99.90;;;;;;4972255;28;20949;-73
2023/07/01 02:44:47;;;;;;;1999.90;999.90;;;14.50;99.90;;;;;;4972956;28;20933;-73
2023/07/01 02:47:14;;;;;;;1999.90;999.90;;;14.40;99.90;;;;;;4964301;28;20855;-73
2023/07/01 02:49:41;;;;;;;1999.90;999.90;;;14.40;99.90;;;;;;4973094;28;20428;-73
2023/07/01 02:52:08;;;;;;;1999.90;999.90;;;14.40;99.90;;;;;;4972249;28;20412;-73
2023/07/01 02:54:38;;;;;;;1999.90;999.90;;;14.40;99.90;;;;;;4972662;28;20420;-73
2023/07/01 02:57:06;;;;;;;1999.90;999.90;;;14.50;99.90;;;;;;4963625;28;20920;-73
2023/07/01 02:59:33;;;;;;;1999.90;999.90;;;14.50;99.90;;;;;;4972706;28;20420;-74
2023/07/01 03:02:00;;;;;;;1999.90;999.90;;;14.40;99.90;;;;;;4972154;28;20436;-73
2023/07/01 03:04:27;;;;;;;1999.90;999.90;;;14.30;99.90;;;;;;4972480;28;20475;-73
2023/07/01 03:06:53;;;;;;;1999.90;999.90;;;14.30;99.90;;;;;;4972067;28;20491;-73
2023/07/01 03:09:20;;;;;;;1999.90;999.90;;;14.30;99.90;;;;;;4966366;28;20519;-73
2023/07/01 03:11:48;;;;;;;1999.90;999.90;;;14.30;99.90;;;;;;4970160;28;20428;-72
2023/07/01 03:14:14;;;;;;;1999.90;999.90;;;14.30;99.90;;;;;;4970537;28;20448;-73
2023/07/01 03:16:41;;;;;;;1999.90;999.90;;;14.30;99.90;;;;;;4970178;28;20444;-74
2023/07/01 03:19:08;;;;;;;1999.90;999.90;;;14.20;99.90;;;;;;4970640;28;20847;-73
2023/07/01 03:21:35;;;;;;;1999.90;999.90;;;14.20;99.90;;;;;;4970652;28;20564;-73
2023/07/01 03:24:02;;;;;;;1999.90;999.90;;;14.20;99.90;;;;;;4969832;28;20490;-74
2023/07/01 03:26:29;;;;;;;1999.90;999.90;;;14.10;99.90;;;;;;4963397;28;20432;-74
2023/07/01 03:28:57;;;;;;;1999.90;999.90;;;14.00;99.90;;;;;;4970374;28;20498;-72
2023/07/01 03:31:24;;;;;;;1999.90;999.90;;;14.10;99.90;;;;;;4970675;28;20473;-72
2023/07/01 03:33:51;;;;;;;1999.90;999.90;;;14.20;99.90;;;;;;4971661;28;20452;-73
2023/07/01 03:36:18;;;;;;;1999.90;999.90;;;14.30;99.90;;;;;;4971962;28;20420;-73
2023/07/01 03:38:44;;;;;;;1999.90;999.90;;;14.40;99.90;;;;;;4963962;28;20915;-73
2023/07/01 03:41:11;;;;;;;1999.90;999.90;;;14.50;99.90;;;;;;4972435;28;20474;-72
2023/07/01 03:43:38;;;;;;;1999.90;999.90;;;14.60;99.90;;;;;;4971810;28;20420;-74
2023/07/01 03:46:06;;;;;;;1999.90;999.90;;;14.70;99.90;;;;;;4972238;28;20416;-72
2023/07/01 03:48:33;;;;;;;1999.90;999.90;;;14.90;99.90;;;;;;4964194;28;20459;-73
2023/07/01 03:50:59;;;;;;;1999.90;999.90;;;15.00;99.90;;;;;;4972605;28;21013;-73
2023/07/01 03:53:26;;;;;;;1999.90;999.90;;;15.10;99.90;;;;;;4971632;28;20420;-73
2023/07/01 03:55:52;;;;;;;1999.90;999.90;;;15.30;99.90;;;;;;4972529;28;20520;-74
2023/07/01 03:58:24;;;;;;;1999.90;999.90;;;15.50;99.90;;;;;;4963456;28;20450;-70
2023/07/01 04:00:51;;;;;;;1999.90;999.90;;;15.60;99.90;;;;;;4972108;28;20969;-73
2023/07/01 04:03:21;;;;;;;1999.90;999.90;;;15.80;99.90;;;;;;4971765;28;20428;-72
2023/07/01 04:05:48;;;;;;;1999.90;999.90;;;16.00;99.90;;;;;;4972214;28;20420;-73
2023/07/01 04:08:14;;;;;;;1999.90;999.90;;;16.20;99.90;;;;;;4963418;28;20481;-73
2023/07/01 04:10:41;;;;;;;1999.90;999.90;;;16.30;99.90;;;;;;4972172;28;20511;-73
2023/07/01 04:13:08;;;;;;;1999.90;999.90;;;16.50;99.90;;;;;;4970968;28;20415;-72
2023/07/01 04:15:34;;;;;;;1999.90;999.90;;;16.70;99.90;;;;;;4971700;28;20424;-73
2023/07/01 04:18:01;;;;;;;1999.90;999.90;;;16.90;99.90;;;;;;4964062;28;20437;-72
2023/07/01 04:20:29;;;;;;;1999.90;999.90;;;17.00;99.90;;;;;;4968167;28;20444;-70
2023/07/01 04:22:55;;;;;;;1999.90;999.90;;;17.00;99.90;;;;;;4969250;28;20440;-73
2023/07/01 04:25:22;;;;;;;1999.90;999.90;;;16.90;99.90;;;;;;4966797;28;20514;-73
2023/07/01 04:27:48;;;;;;;1999.90;999.90;;;16.80;99.90;;;;;;4966492;28;20491;-69
2023/07/01 04:30:16;;;;;;;1999.90;999.90;;;17.00;99.90;;;;;;4969188;28;20910;-72
2023/07/01 04:32:43;;;;;;;1999.90;999.90;;;17.10;99.90;;;;;;4969339;28;20470;-72
2023/07/01 04:35:09;;;;;;;1999.90;999.90;;;17.20;99.90;;;;;;4969669;28;20486;-70
2023/07/01 04:37:37;;;;;;;1999.90;999.90;;;16.80;99.90;;;;;;4969139;28;20448;-73
2023/07/01 04:40:05;;;;;;;1999.90;999.90;;;16.90;99.90;;;;;;4970267;28;20484;-74
2023/07/01 04:42:33;;;;;;;1999.90;999.90;;;17.10;99.90;;;;;;4974684;28;20490;-72
2023/07/01 04:44:59;;;;;;;1999.90;999.90;;;17.50;99.90;;;;;;4977186;28;20443;-75
2023/07/01 04:47:27;;;;;;;1999.90;999.90;;;17.70;99.90;;;;;;4980954;28;20455;-74
2023/07/01 04:49:54;;;;;;;1999.90;999.90;;;17.80;99.90;;;;;;4976613;28;20859;-74
2023/07/01 04:52:21;;;;;;;1999.90;999.90;;;17.70;99.90;;;;;;4978090;28;20490;-73
2023/07/01 04:54:49;;;;;;;1999.90;999.90;;;17.80;99.90;;;;;;4971401;28;20435;-74
2023/07/01 04:57:16;;;;;;;1999.90;999.90;;;18.00;99.90;;;;;;4973031;28;21017;-75
2023/07/01 04:59:43;;;;;;;1999.90;999.90;;;18.20;99.90;;;;;;4974363;28;20819;-74
2023/07/01 05:02:09;;;;;;;1999.90;999.90;;;18.40;99.90;;;;;;4972712;28;20446;-73
2023/07/01 05:04:36;;;;;;;1999.90;999.90;;;18.40;99.90;;;;;;4971358;28;20850;-72
2023/07/01 05:07:04;;;;;;;1999.90;999.90;;;18.60;99.90;;;;;;4971922;28;20443;-73
2023/07/01 05:09:30;;;;;;;1999.90;999.90;;;18.70;99.90;;;;;;4970407;28;20498;-74
2023/07/01 05:11:58;;;;;;;1999.90;999.90;;;18.90;99.90;;;;;;4970463;28;20490;-75
2023/07/01 05:14:25;;;;;;;1999.90;999.90;;;19.10;99.90;;;;;;4972865;28;20580;-73
2023/07/01 05:16:51;;;;;;;1999.90;999.90;;;19.10;99.90;;;;;;4972561;28;20444;-73
2023/07/01 05:19:18;;;;;;;1999.90;999.90;;;19.00;99.90;;;;;;4973308;28;20498;-73
2023/07/01 05:21:50;;;;;;;1999.90;999.90;;;19.10;99.90;;;;;;4972165;28;20443;-74
2023/07/01 05:24:17;;;;;;;1999.90;999.90;;;19.10;99.90;;;;;;4970228;28;20435;-73
2023/07/01 05:26:45;;;;;;;1999.90;999.90;;;19.00;99.90;;;;;;4972477;28;20442;-73
2023/07/01 05:29:14;;;;;;;1999.90;999.90;;;19.30;99.90;;;;;;4973254;28;20440;-73
2023/07/01 05:31:40;;;;;;;1999.90;999.90;;;19.20;99.90;;;;;;4972854;28;20442;-72
2023/07/01 05:34:07;;;;;;;1999.90;999.90;;;19.10;99.90;;;;;;4972926;28;20840;-73
2023/07/01 05:36:34;;;;;;;1999.90;999.90;;;19.30;99.90;;;;;;4970720;28;20498;-75
2023/07/01 05:39:03;;;;;;;1999.90;999.90;;;19.10;99.90;;;;;;4972174;28;20447;-73
2023/07/01 05:41:30;;;;;;;1999.90;999.90;;;19.10;99.90;;;;;;4972360;28;20462;-73
2023/07/01 05:43:56;;;;;;;1999.90;999.90;;;19.20;99.90;;;;;;4972589;28;20431;-72
2023/07/01 05:46:24;;;;;;;1999.90;999.90;;;19.40;99.90;;;;;;4973053;28;20564;-73
2023/07/01 05:48:51;;;;;;;1999.90;999.90;;;19.80;99.90;;;;;;4974619;28;20540;-72
2023/07/01 05:51:17;;;;;;;1999.90;999.90;;;20.30;99.90;;;;;;4974423;28;20424;-73
2023/07/01 05:53:45;;;;;;;1999.90;999.90;;;20.70;99.90;;;;;;4973905;28;20427;-72
2023/07/01 05:56:12;;;;;;;1999.90;999.90;;;20.70;99.90;;;;;;4965730;28;20500;-72
2023/07/01 05:58:39;;;;;;;1999.90;999.90;;;20.50;99.90;;;;;;4974476;28;20462;-70
2023/07/01 06:01:05;;;;;;;1999.90;999.90;;;20.50;99.90;;;;;;4974555;28;20902;-72
2023/07/01 06:03:33;;;;;;;1999.90;999.90;;;20.40;99.90;;;;;;4972636;28;20432;-70
2023/07/01 06:06:00;;;;;;;1999.90;999.90;;;20.40;99.90;;;;;;4966989;28;20942;-73
2023/07/01 06:08:27;;;;;;;1999.90;999.90;;;20.30;99.90;;;;;;4972783;28;20490;-72
2023/07/01 06:10:53;;;;;;;1999.90;999.90;;;20.20;99.90;;;;;;4974353;28;20467;-72
2023/07/01 06:13:20;;;;;;;1999.90;999.90;;;20.30;99.90;;;;;;4973787;28;20419;-70
2023/07/01 06:15:47;;;;;;;1999.90;999.90;;;20.10;99.90;;;;;;4968340;28;20442;-72
2023/07/01 06:18:14;;;;;;;1999.90;999.90;;;20.00;99.90;;;;;;4971017;28;20424;-71
2023/07/01 06:20:42;;;;;;;1999.90;999.90;;;20.20;99.90;;;;;;4974095;28;20478;-72
2023/07/01 06:23:09;;;;;;;1999.90;999.90;;;20.30;99.90;;;;;;4973173;28;20440;-72
2023/07/01 06:25:36;;;;;;;1999.90;999.90;;;20.40;99.90;;;;;;4970866;28;20496;-72
2023/07/01 06:28:02;;;;;;;1999.90;999.90;;;20.40;99.90;;;;;;4968836;28;20490;-72
2023/07/01 06:30:29;;;;;;;1999.90;999.90;;;20.20;99.90;;;;;;4973867;28;20479;-72
2023/07/01 06:32:55;;;;;;;1999.90;999.90;;;20.20;99.90;;;;;;4973014;28;20913;-73
2023/07/01 06:35:22;;;;;;;1999.90;999.90;;;19.90;99.90;;;;;;4971947;28;20440;-73
2023/07/01 06:37:50;;;;;;;1999.90;999.90;;;20.10;99.90;;;;;;4966975;28;20453;-73
2023/07/01 06:40:17;;;;;;;1999.90;999.90;;;20.30;99.90;;;;;;4973818;28;20495;-71
2023/07/01 06:42:44;;;;;;;1999.90;999.90;;;20.50;99.90;;;;;;4973027;28;20431;-71
2023/07/01 06:45:11;;;;;;;1999.90;999.90;;;20.60;99.90;;;;;;4966080;28;20432;-72
2023/07/01 06:47:37;;;;;;;1999.90;999.90;;;20.70;99.90;;;;;;4972362;28;20471;-72
2023/07/01 06:50:04;;;;;;;1999.90;999.90;;;20.60;99.90;;;;;;4973160;28;20424;-76
2023/07/01 06:52:31;;;;;;;1999.90;999.90;;;20.80;99.90;;;;;;4972817;28;20441;-73
2023/07/01 06:54:59;;;;;;;1999.90;999.90;;;20.90;99.90;;;;;;4972755;28;20440;-70
2023/07/01 06:57:27;;;;;;;1999.90;999.90;;;20.60;99.90;;;;;;4971893;28;20431;-73
2023/07/01 06:59:53;;;;;;;1999.90;999.90;;;20.60;99.90;;;;;;4973286;28;20432;-73
2023/07/01 07:02:20;;;;;;;1999.90;999.90;;;20.90;99.90;;;;;;4969142;28;20491;-72
2023/07/01 07:04:47;;;;;;;1999.90;999.90;;;20.70;99.90;;;;;;4971965;28;20450;-73
2023/07/01 07:07:13;;;;;;;1999.90;999.90;;;21.00;99.90;;;;;;4971149;28;20440;-73
2023/07/01 07:09:40;;;;;;;1999.90;999.90;;;21.30;99.90;;;;;;4968741;28;20472;-74
2023/07/01 07:12:09;;;;;;;1999.90;999.90;;;21.10;99.90;;;;;;4969977;28;20447;-73
2023/07/01 07:14:35;;;;;;;1999.90;999.90;;;21.20;99.90;;;;;;4970169;28;20490;-73
2023/07/01 07:17:02;;;;;;;1999.90;999.90;;;21.00;99.90;;;;;;4971828;28;20938;-74
2023/07/01 07:19:29;;;;;;;1999.90;999.90;;;21.20;99.90;;;;;;4970127;28;20436;-73
2023/07/01 07:21:55;;;;;;;1999.90;999.90;;;21.50;99.90;;;;;;4970357;28;20436;-73
2023/07/01 07:26:57;;;;;;;1999.90;999.90;;;22.00;99.90;;;;;;4961164;28;20510;-73
2023/07/01 07:29:25;;;;;;;1999.90;999.90;;;21.80;99.90;;;;;;4968288;28;20432;-73
2023/07/01 07:31:52;;;;;;;1999.90;999.90;;;22.00;99.70;;;;;;4970227;28;20782;-73
2023/07/01 07:34:19;;;;;;;1999.90;999.90;;;21.70;99.90;;;;;;4970237;28;20436;-72
2023/07/01 07:36:46;;;;;;;1999.90;999.90;;;21.20;99.90;;;;;;4949303;29;20931;-73
2023/07/01 07:39:13;;;;;;;1999.90;999.90;;;21.10;99.90;;;;;;4950748;28;20442;-73
2023/07/01 07:41:40;;;;;;;1999.90;999.90;;;21.00;99.90;;;;;;4950805;29;20441;-74
2023/07/01 07:44:06;;;;;;;1999.90;999.90;;;21.30;99.90;;;;;;4949070;28;20441;-70
2023/07/01 07:46:35;;;;;;;1999.90;999.90;;;21.30;99.90;;;;;;4949143;28;20469;-72
2023/07/01 07:49:02;;;;;;;1999.90;999.90;;;21.70;99.90;;;;;;4951556;28;20488;-73
2023/07/01 07:51:29;;;;;;;1999.90;999.90;;;21.40;99.90;;;;;;4951228;29;20493;-74
2023/07/01 07:53:55;;;;;;;1999.90;999.90;;;21.60;99.90;;;;;;4946566;28;20433;-73
2023/07/01 07:56:22;;;;;;;1999.90;999.90;;;22.30;99.80;;;;;;4949315;29;20502;-73
2023/07/01 07:58:49;;;;;;;1999.90;999.90;;;22.70;99.90;;;;;;4950867;28;20477;-74
2023/07/01 08:01:15;;;;;;;1999.90;999.90;;;23.30;99.10;;;;;;4951739;28;20441;-73
2023/07/01 08:03:44;;;;;;;1999.90;999.90;;;23.70;98.30;;;;;;4950736;28;20441;-74
2023/07/01 08:06:10;;;;;;;1999.90;999.90;;;23.80;97.50;;;;;;4952594;28;20473;-73
2023/07/01 08:08:37;;;;;;;1999.90;999.90;;;23.40;96.40;;;;;;4952658;29;20857;-74
2023/07/01 08:11:04;;;;;;;1999.90;999.90;;;23.00;97.20;;;;;;4951478;28;20441;-72
2023/07/01 08:13:30;;;;;;;1999.90;999.90;;;23.10;98.30;;;;;;4950614;28;20433;-74
2023/07/01 08:15:57;;;;;;;1999.90;999.90;;;23.20;97.20;;;;;;4947269;28;20468;-71
2023/07/01 08:18:24;;;;;;;1999.90;999.90;;;23.30;96.60;;;;;;4950658;28;20441;-74
2023/07/01 08:20:52;;;;;;;1999.90;999.90;;;23.10;97.20;;;;;;4948459;28;20493;-73
2023/07/01 08:23:19;;;;;;;1999.90;999.90;;;23.20;96.70;;;;;;4949151;29;20492;-73
2023/07/01 08:25:45;;;;;;;1999.90;999.90;;;23.70;96.40;;;;;;4945112;28;20437;-72
2023/07/01 08:28:12;;;;;;;1999.90;999.90;;;23.90;96.70;;;;;;4942729;29;20494;-75
2023/07/01 08:30:39;;;;;;;1999.90;999.90;;;23.80;96.00;;;;;;4950811;28;20438;-73
2023/07/01 08:33:05;;;;;;;1999.90;999.90;;;23.80;95.30;;;;;;4949758;28;20504;-72
2023/07/01 08:35:32;;;;;;;1999.90;999.90;;;23.10;95.70;;;;;;4947977;28;20452;-73
2023/07/01 08:38:00;;;;;;;1999.90;999.90;;;22.90;96.80;;;;;;4946843;28;21005;-75
2023/07/01 08:40:27;;;;;;;1999.90;999.90;;;23.10;96.70;;;;;;4950703;28;20492;-74
2023/07/01 08:43:01;;;;;;;1999.90;999.90;;;22.70;96.60;;;;;;4948315;28;20441;-73
2023/07/01 08:45:30;;;;;;;1999.90;999.90;;;22.30;96.80;;;;;;4950618;28;20449;-73
2023/07/01 08:47:59;;;;;;;1999.90;999.90;;;22.30;97.60;;;;;;4951180;28;20464;-73
2023/07/01 08:50:29;;;;;;;1999.90;999.90;;;22.40;97.70;;;;;;4949816;28;20489;-73
2023/07/01 08:53:04;;;;;;;1999.90;999.90;;;22.30;97.20;;;;;;4947414;28;20519;-73
2023/07/01 08:55:31;;;;;;;1999.90;999.90;;;22.40;97.20;;;;;;4949977;28;20500;-74
2023/07/01 08:57:58;;;;;;;1999.90;999.90;;;22.70;96.90;;;;;;4950154;29;20446;-75
2023/07/01 09:00:25;;;;;;;1999.90;999.90;;;22.70;96.30;;;;;;4950092;29;20813;-72
2023/07/01 09:02:53;;;;;;;1999.90;999.90;;;22.80;96.70;;;;;;4947212;28;20820;-73
2023/07/01 09:05:19;;;;;;;1999.90;999.90;;;23.00;95.10;;;;;;4949693;29;20438;-75
2023/07/01 09:07:46;;;;;;;1999.90;999.90;;;22.80;95.40;;;;;;4948811;28;20937;-71
2023/07/01 09:10:14;;;;;;;1999.90;999.90;;;22.60;95.80;;;;;;4951926;28;20519;-74
2023/07/01 09:12:41;;;;;;;1999.90;999.90;;;22.40;95.80;;;;;;4948810;28;20496;-74
2023/07/01 09:15:08;;;;;;;1999.90;999.90;;;22.20;95.80;;;;;;4948179;29;20437;-73
2023/07/01 09:17:37;;;;;;;1999.90;999.90;;;22.50;96.60;;;;;;4949307;28;20437;-74
2023/07/01 09:20:06;;;;;;;1999.90;999.90;;;22.40;96.70;;;;;;4949712;28;20845;-71
2023/07/01 09:22:34;;;;;;;1999.90;999.90;;;22.70;96.60;;;;;;4949351;28;20918;-73
2023/07/01 09:25:01;;;;;;;1999.90;999.90;;;22.80;96.20;;;;;;4950718;29;20473;-72
2023/07/01 09:27:40;;;;;;;1999.90;999.90;;;22.80;95.90;;;;;;4952014;28;20671;-73
2023/07/01 09:30:24;;;;;;;1999.90;999.90;;;22.60;95.50;;;;;;4952308;28;20417;-73
2023/07/01 09:32:50;;;;;;;1999.90;999.90;;;22.10;95.40;;;;;;4951472;28;20425;-73
2023/07/01 09:35:17;;;;;;;1999.90;999.90;;;22.20;95.30;;;;;;4951051;28;20441;-73
2023/07/01 09:37:44;;;;;;;1999.90;999.90;;;22.20;95.80;;;;;;4953248;28;20425;-73
2023/07/01 09:40:21;;;;;;;1999.90;999.90;;;22.30;95.90;;;;;;4954068;28;20445;-74
2023/07/01 09:42:52;;;;;;;1999.90;999.90;;;22.20;95.30;;;;;;4951268;29;20436;-73
2023/07/01 09:45:19;;;;;;;1999.90;999.90;;;22.40;95.80;;;;;;4952125;29;20437;-71
2023/07/01 09:47:49;;;;;;;1999.90;999.90;;;22.50;94.90;;;;;;4952136;28;20496;-73
2023/07/01 09:50:22;;;;;;;1999.90;999.90;;;22.50;95.70;;;;;;4950218;29;20975;-74
2023/07/01 09:52:50;;;;;;;1999.90;999.90;;;22.50;95.00;;;;;;4952909;29;20445;-70
2023/07/01 09:55:17;;;;;;;1999.90;999.90;;;22.40;95.40;;;;;;4952533;28;20437;-73
2023/07/01 09:57:44;;;;;;;1999.90;999.90;;;22.80;95.50;;;;;;4952989;29;20488;-75
2023/07/01 10:00:15;;;;;;;1999.90;999.90;;;22.80;96.20;;;;;;4951434;28;20441;-74
2023/07/01 10:02:44;;;;;;;1999.90;999.90;;;22.60;95.40;;;;;;4951799;28;20445;-74
2023/07/01 10:05:12;;;;;;;1999.90;999.90;;;23.00;95.70;;;;;;4953281;28;20491;-72
2023/07/01 10:07:39;;;;;;;1999.90;999.90;;;22.80;95.80;;;;;;4951256;28;20540;-74
2023/07/01 10:10:11;;;;;;;1999.90;999.90;;;22.80;96.40;;;;;;4946474;29;20451;-74
2023/07/01 10:12:40;;;;;;;1999.90;999.90;;;22.90;96.10;;;;;;4950200;29;20452;-76
2023/07/01 10:15:09;;;;;;;1999.90;999.90;;;23.40;95.90;;;;;;4952544;29;20445;-73
2023/07/01 10:17:47;;;;;;;1999.90;999.90;;;23.80;96.00;;;;;;4951944;28;20441;-73
2023/07/01 10:20:27;;;;;;;1999.90;999.90;;;24.20;94.30;;;;;;4952328;29;20445;-73
2023/07/01 10:22:55;;;;;;;1999.90;999.90;;;24.40;95.00;;;;;;4949864;29;20438;-73
2023/07/01 10:25:31;;;;;;;1999.90;999.90;;;24.40;95.20;;;;;;4950517;29;20576;-74
2023/07/01 10:28:05;;;;;;;1999.90;999.90;;;24.60;94.50;;;;;;4950672;29;20490;-70
2023/07/01 10:31:10;;;;;;;1999.90;999.90;;;24.40;94.60;;;;;;4954512;29;20430;-73
2023/07/01 10:33:55;;;;;;;1999.90;999.90;;;24.50;95.80;;;;;;4953078;28;20612;-75
2023/07/01 10:36:21;;;;;;;1999.90;999.90;;;25.10;94.70;;;;;;4947718;29;20473;-71
2023/07/01 10:38:48;;;;;;;1999.90;999.90;;;24.60;94.10;;;;;;4953072;28;20469;-74
2023/07/01 10:41:15;;;;;;;1999.90;999.90;;;24.10;94.50;;;;;;4954051;28;20418;-73
2023/07/01 10:43:41;;;;;;;1999.90;999.90;;;23.90;95.50;;;;;;4953210;28;20484;-74
2023/07/01 10:46:13;;;;;;;1999.90;999.90;;;23.60;95.10;;;;;;4953209;28;20446;-73
2023/07/01 10:48:42;;;;;;;1999.90;999.90;;;23.10;94.90;;;;;;4953584;28;20464;-75
2023/07/01 10:51:11;;;;;;;1999.90;999.90;;;23.40;95.80;;;;;;4954368;28;20426;-76
2023/07/01 10:53:59;;;;;;;1999.90;999.90;;;23.50;95.60;;;;;;4953615;28;20432;-73
2023/07/01 10:56:26;;;;;;;1999.90;999.90;;;23.10;95.80;;;;;;4954027;28;20864;-74
2023/07/01 10:59:22;;;;;;;1999.90;999.90;;;23.10;95.80;;;;;;4953259;28;20449;-75
2023/07/01 11:01:50;;;;;;;1999.90;999.90;;;23.10;97.00;;;;;;4953314;28;20425;-74
2023/07/01 11:04:18;;;;;;;1999.90;999.90;;;22.80;96.90;;;;;;4953733;28;20429;-73
2023/07/01 11:06:48;;;;;;;1999.90;999.90;;;22.60;97.30;;;;;;4953701;28;20422;-73
2023/07/01 11:09:15;;;;;;;1999.90;999.90;;;22.50;98.00;;;;;;4953434;28;20426;-74
2023/07/01 11:11:42;;;;;;;1999.90;999.90;;;22.60;98.20;;;;;;4952136;28;20438;-75
2023/07/01 11:14:11;;;;;;;1999.90;999.90;;;22.50;98.00;;;;;;4952960;28;20411;-73
2023/07/01 11:16:38;;;;;;;1999.90;999.90;;;22.50;98.70;;;;;;4954093;28;20419;-72
2023/07/01 11:19:07;;;;;;;1999.90;999.90;;;22.50;98.40;;;;;;4953148;28;20817;-72
2023/07/01 11:21:33;;;;;;;1999.90;999.90;;;22.60;99.10;;;;;;4953628;29;20422;-71
2023/07/01 11:24:03;;;;;;;1999.90;999.90;;;22.20;99.20;;;;;;4953308;28;20429;-72
2023/07/01 11:26:32;;;;;;;1999.90;999.90;;;22.30;99.90;;;;;;4952072;28;20485;-72
2023/07/01 11:28:58;;;;;;;1999.90;999.90;;;22.10;99.90;;;;;;4945929;29;20461;-73
2023/07/01 11:31:30;;;;;;;1999.90;999.90;;;22.10;99.90;;;;;;4953601;28;20422;-73
2023/07/01 11:33:57;;;;;;;1999.90;999.90;;;22.20;99.90;;;;;;4952939;28;20421;-73
2023/07/01 11:36:34;;;;;;;1999.90;999.90;;;21.80;99.90;;;;;;4952253;28;20515;-73
2023/07/01 11:39:07;;;;;;;1999.90;999.90;;;21.70;99.90;;;;;;4945744;29;20505;-73
2023/07/01 11:41:35;;;;;;;1999.90;999.90;;;21.70;99.90;;;;;;4953236;28;20528;-77
2023/07/01 11:44:02;;;;;;;1999.90;999.90;;;21.70;99.90;;;;;;4952825;28;20497;-75
2023/07/01 11:46:33;;;;;;;1999.90;999.90;;;21.90;99.90;;;;;;4953255;28;20421;-73
2023/07/01 11:49:14;;;;;;;1999.90;999.90;;;22.10;99.90;;;;;;4951430;28;20496;-74
2023/07/01 11:51:42;;;;;;;1999.90;999.90;;;22.20;99.90;;;;;;4952437;28;20987;-73
2023/07/01 11:54:11;;;;;;;1999.90;999.90;;;22.40;99.80;;;;;;4953075;28;20452;-73
2023/07/01 11:56:37;;;;;;;1999.90;999.90;;;22.10;99.90;;;;;;4952760;28;20920;-73
2023/07/01 11:59:04;;;;;;;1999.90;999.90;;;22.20;99.90;;;;;;4953036;28;20438;-74
2023/07/01 12:01:31;;;;;;;1999.90;999.90;;;22.30;99.90;;;;;;4954684;28;20979;-73
2023/07/01 12:03:57;;;;;;;1999.90;999.90;;;22.10;99.90;;;;;;4956390;28;20476;-73
2023/07/01 12:06:26;;;;;;;1999.90;999.90;;;22.00;99.90;;;;;;4957781;28;20558;-74